Time;durP1;ratioP1;P1;durP2;ratioP2;P2;SDS_P1;SDS_P2;PMS_P1;PMS_P2;Temp;Humidity;BMP_temperature;BMP_pressure;BME280_temperature;BME280_humidity;BME280_pressure;Samples;Min_cycle;Max_cycle;Signal;HPM_P1;HPM_P2
2024/01/19 00:03:35;;;;;;;11.52;5.75;;;;;;;-1.69;93.27;99991.06;10446643;28;20052;-79
2024/01/19 00:08:38;;;;;;;13.82;7.10;;;;;;;-1.62;91.88;99989.91;10446703;28;20063;-78
2024/01/19 00:13:43;;;;;;;8.93;5.63;;;;;;;-1.57;91.82;99987.97;10444653;28;20159;-80
2024/01/19 00:18:46;;;;;;;13.45;6.45;;;;;;;-1.53;90.90;99994.00;10454890;28;20036;-79
2024/01/19 00:23:50;;;;;;;8.65;5.65;;;;;;;-1.70;92.32;100002.50;10447317;28;20040;-79
2024/01/19 00:28:55;;;;;;;9.07;6.13;;;;;;;-1.50;91.27;99999.16;10445627;28;20052;-79
2024/01/19 00:33:58;;;;;;;11.27;6.47;;;;;;;-1.71;92.25;100012.19;10451611;28;20156;-79
2024/01/19 00:39:01;;;;;;;12.57;7.85;;;;;;;-1.72;93.26;100004.38;10448539;28;20059;-79
2024/01/19 00:44:06;;;;;;;15.05;7.75;;;;;;;-1.75;93.29;100021.13;10441510;28;20048;-79
2024/01/19 00:49:09;;;;;;;14.23;7.18;;;;;;;-1.83;93.21;100027.59;10445425;28;20049;-80
2024/01/19 00:54:12;;;;;;;16.90;7.15;;;;;;;-2.05;96.33;100024.84;10447171;28;20048;-80
2024/01/19 00:59:16;;;;;;;8.40;5.20;;;;;;;-1.89;95.48;100031.31;10453943;28;20048;-78
2024/01/19 01:04:19;;;;;;;6.97;4.28;;;;;;;-2.07;96.27;100038.06;10441662;28;20056;-80
2024/01/19 01:09:22;;;;;;;11.57;7.47;;;;;;;-1.85;96.06;100046.06;10444884;28;20053;-80
2024/01/19 01:14:27;;;;;;;13.35;7.20;;;;;;;-1.66;94.21;100044.50;10433932;28;20044;-80
2024/01/19 01:19:31;;;;;;;15.52;7.90;;;;;;;-1.81;95.37;100086.31;10451616;28;20124;-78
2024/01/19 01:24:35;;;;;;;11.73;7.18;;;;;;;-1.81;95.71;100071.38;10444281;28;20539;-78
2024/01/19 01:29:39;;;;;;;13.65;8.07;;;;;;;-1.74;94.85;100070.25;10428450;28;20071;-80
2024/01/19 01:34:42;;;;;;;14.93;8.23;;;;;;;-1.84;95.23;100079.38;10440812;28;21285;-79
2024/01/19 01:39:45;;;;;;;19.50;8.30;;;;;;;-1.91;95.17;100083.13;10440037;28;20135;-79
2024/01/19 01:44:50;;;;;;;10.82;5.78;;;;;;;-2.09;95.01;100082.84;10444748;28;20062;-79
2024/01/19 01:49:54;;;;;;;16.70;8.07;;;;;;;-1.95;94.19;100089.41;10452105;28;20040;-80
2024/01/19 01:54:57;;;;;;;11.85;7.15;;;;;;;-2.15;94.72;100105.88;10490714;28;20049;-80
2024/01/19 02:00:02;;;;;;;14.77;8.20;;;;;;;-2.15;94.89;100097.97;10445201;28;20124;-77
2024/01/19 02:05:06;;;;;;;7.20;4.88;;;;;;;-2.28;93.89;100084.34;10483193;28;20712;-77
2024/01/19 02:10:09;;;;;;;19.75;7.53;;;;;;;-2.13;93.36;100102.28;10471851;28;20044;-78
2024/01/19 02:15:20;;;;;;;12.65;7.07;;;;;;;-2.21;94.40;100112.22;10437149;28;20124;-80
2024/01/19 02:20:23;;;;;;;8.93;5.55;;;;;;;-2.18;93.87;100108.63;10452726;28;20044;-78
2024/01/19 02:25:27;;;;;;;7.72;5.47;;;;;;;-2.14;90.56;100120.75;10438212;28;20100;-78
2024/01/19 02:30:32;;;;;;;17.77;7.55;;;;;;;-1.99;90.20;100112.34;10439372;28;20108;-80
2024/01/19 02:35:34;;;;;;;6.57;4.30;;;;;;;-2.13;90.51;100118.06;10440091;28;20061;-81
2024/01/19 02:40:39;;;;;;;12.80;8.05;;;;;;;-2.11;91.69;100115.41;10439865;28;20045;-80
2024/01/19 02:45:42;;;;;;;11.73;6.63;;;;;;;-2.54;94.13;100115.00;10423961;28;20480;-80
2024/01/19 02:50:45;;;;;;;14.35;7.43;;;;;;;-2.07;91.30;100112.59;10458646;28;20048;-78
2024/01/19 03:02:12;;;;;;;13.57;8.15;;;;;;;-2.35;92.19;100140.75;10458145;28;20040;-78
2024/01/19 03:07:15;;;;;;;18.00;8.65;;;;;;;-2.28;92.44;100152.78;10456731;28;20074;-79
2024/01/19 03:12:18;;;;;;;14.52;7.95;;;;;;;-2.03;91.20;100166.00;10458306;28;20054;-80
2024/01/19 03:17:22;;;;;;;13.93;9.32;;;;;;;-1.98;90.66;100176.38;10451592;28;20051;-80
2024/01/19 03:22:26;;;;;;;19.92;9.05;;;;;;;-2.14;92.43;100181.28;10448197;28;20045;-81
2024/01/19 03:27:28;;;;;;;17.23;9.60;;;;;;;-2.02;91.05;100174.78;10449800;28;20057;-80
2024/01/19 03:32:34;;;;;;;21.13;9.38;;;;;;;-2.32;93.84;100175.69;10447433;28;20049;-80
2024/01/19 03:37:37;;;;;;;21.30;8.88;;;;;;;-1.94;93.28;100175.41;10446164;28;20052;-80
2024/01/19 03:42:40;;;;;;;15.55;8.38;;;;;;;-2.07;92.99;100167.88;10450045;28;20056;-78
2024/01/19 03:47:45;;;;;;;14.38;8.00;;;;;;;-2.12;96.77;100168.94;10439591;28;20474;-79
2024/01/19 03:52:48;;;;;;;16.83;6.45;;;;;;;-2.41;100.00;100177.75;10446667;28;20061;-78
2024/01/19 03:57:51;;;;;;;18.30;8.63;;;;;;;-2.21;100.00;100138.53;10448670;28;20610;-80
2024/01/19 04:02:56;;;;;;;17.58;10.75;;;;;;;-2.51;100.00;100157.00;10432072;28;20075;-78
2024/01/19 04:07:59;;;;;;;20.38;12.27;;;;;;;-2.18;100.00;100164.72;10471853;28;20045;-80
2024/01/19 04:13:02;;;;;;;19.27;10.55;;;;;;;-2.68;100.00;100159.28;10444109;28;20055;-79
2024/01/19 04:18:06;;;;;;;18.80;11.20;;;;;;;-2.50;100.00;100163.09;10441335;28;20045;-78
2024/01/19 04:23:10;;;;;;;20.20;10.15;;;;;;;-2.61;100.00;100173.94;10444139;28;20079;-78
2024/01/19 04:28:13;;;;;;;27.95;12.70;;;;;;;-2.57;100.00;100182.63;10442229;28;20044;-80
2024/01/19 04:33:17;;;;;;;21.85;11.55;;;;;;;-2.83;100.00;100188.63;10443041;28;20579;-79
2024/01/19 04:38:20;;;;;;;9.00;6.10;;;;;;;-2.83;100.00;100196.53;10463909;28;20051;-79
2024/01/19 04:43:23;;;;;;;20.42;11.35;;;;;;;-2.80;100.00;100204.31;10506685;28;20039;-78
2024/01/19 04:48:28;;;;;;;15.57;10.15;;;;;;;-2.99;100.00;100196.97;10464842;28;20412;-79
2024/01/19 04:53:31;;;;;;;25.88;12.45;;;;;;;-2.49;100.00;100209.56;10495701;28;20887;-79
2024/01/19 04:58:35;;;;;;;23.15;11.68;;;;;;;-3.06;100.00;100211.19;10493597;28;20089;-79
2024/01/19 05:03:41;;;;;;;19.35;9.52;;;;;;;-3.05;100.00;100227.81;10473215;28;20075;-80
2024/01/19 05:08:44;;;;;;;23.05;11.88;;;;;;;-2.90;100.00;100252.81;10467714;28;20473;-79
2024/01/19 05:13:47;;;;;;;32.83;18.20;;;;;;;-2.48;100.00;100249.88;10481641;28;21344;-80
2024/01/19 05:18:51;;;;;;;27.17;14.27;;;;;;;-3.02;100.00;100268.00;10489518;28;20044;-78
2024/01/19 05:23:54;;;;;;;23.30;11.85;;;;;;;-2.86;100.00;100264.97;10480453;28;20415;-79
2024/01/19 05:28:57;;;;;;;31.40;17.38;;;;;;;-2.90;100.00;100276.50;10485714;28;20046;-79
2024/01/19 05:34:02;;;;;;;20.48;10.98;;;;;;;-2.71;100.00;100285.59;10460023;28;20833;-78
2024/01/19 05:39:06;;;;;;;27.90;14.68;;;;;;;-2.81;100.00;100284.13;10490375;28;20947;-79
2024/01/19 05:44:09;;;;;;;26.08;13.05;;;;;;;-2.99;100.00;100302.13;10486288;28;20055;-79
2024/01/19 05:49:14;;;;;;;15.35;8.07;;;;;;;-2.65;100.00;100309.09;10497438;28;21185;-78
2024/01/19 05:54:17;;;;;;;18.85;9.85;;;;;;;-2.86;100.00;100314.91;10477474;28;20048;-79
2024/01/19 05:59:20;;;;;;;36.95;22.77;;;;;;;-2.45;100.00;100318.19;10455074;28;20048;-79
2024/01/19 06:04:24;;;;;;;37.85;22.60;;;;;;;-2.53;100.00;100316.63;10453557;28;20044;-80
2024/01/19 06:09:28;;;;;;;31.23;19.33;;;;;;;-2.47;100.00;100312.94;10468845;28;20055;-79
2024/01/19 06:14:31;;;;;;;24.70;14.38;;;;;;;-3.00;100.00;100325.81;10437454;28;20143;-78
2024/01/19 06:19:36;;;;;;;48.78;26.35;;;;;;;-2.72;100.00;100331.19;10476356;28;20127;-77
2024/01/19 06:24:39;;;;;;;33.35;17.45;;;;;;;-2.81;100.00;100334.94;10456433;28;20173;-76
2024/01/19 06:29:42;;;;;;;34.13;16.30;;;;;;;-2.64;100.00;100344.97;10492927;28;20052;-77
2024/01/19 06:34:47;;;;;;;39.92;22.90;;;;;;;-2.71;100.00;100339.94;10471118;28;20045;-78
2024/01/19 06:39:50;;;;;;;52.55;26.85;;;;;;;-2.72;100.00;100354.84;10461065;28;20065;-79
2024/01/19 06:44:53;;;;;;;56.28;30.88;;;;;;;-2.46;100.00;100356.78;10480231;28;20056;-77
2024/01/19 06:49:57;;;;;;;63.00;31.67;;;;;;;-2.31;100.00;100385.28;10479213;28;20781;-79
2024/01/19 06:55:00;;;;;;;36.78;19.02;;;;;;;-2.65;100.00;100382.72;10485974;28;20052;-78
2024/01/19 07:00:04;;;;;;;44.63;21.35;;;;;;;-3.04;100.00;100390.72;10483591;28;20063;-78
2024/01/19 07:05:09;;;;;;;54.33;28.20;;;;;;;-2.64;100.00;100400.22;10475149;28;20032;-78
2024/01/19 07:10:12;;;;;;;32.08;17.63;;;;;;;-2.82;100.00;100406.81;10469042;28;20053;-78
2024/01/19 07:15:15;;;;;;;64.05;30.92;;;;;;;-2.80;100.00;100402.41;10443202;28;20048;-79
2024/01/19 07:20:19;;;;;;;43.58;21.63;;;;;;;-2.59;100.00;100413.25;10444823;28;20048;-79
2024/01/19 07:25:22;;;;;;;50.40;25.70;;;;;;;-2.68;100.00;100422.25;10434103;28;20400;-78
2024/01/19 07:30:25;;;;;;;67.30;35.63;;;;;;;-2.47;100.00;100426.06;10444814;28;20048;-79
2024/01/19 07:35:29;;;;;;;58.05;28.42;;;;;;;-2.59;100.00;100442.19;10445386;28;20125;-80
2024/01/19 07:40:33;;;;;;;56.00;25.65;;;;;;;-2.54;100.00;100451.69;10449303;28;20558;-79
2024/01/19 07:45:36;;;;;;;39.78;17.48;;;;;;;-2.52;100.00;100465.66;10454511;28;20538;-78
2024/01/19 07:50:41;;;;;;;73.07;31.55;;;;;;;-2.55;100.00;100484.16;10454542;28;20057;-80
2024/01/19 07:55:44;;;;;;;63.00;27.58;;;;;;;-2.34;100.00;100487.13;10437381;28;20531;-79
2024/01/19 08:00:47;;;;;;;53.28;27.52;;;;;;;-2.43;100.00;100495.28;10455972;28;20048;-80
2024/01/19 08:05:51;;;;;;;50.13;20.70;;;;;;;-2.31;100.00;100489.69;10437539;28;20041;-80
2024/01/19 08:10:56;;;;;;;69.55;29.42;;;;;;;-1.65;100.00;100504.53;10440794;28;20049;-79
2024/01/19 08:15:59;;;;;;;67.63;29.45;;;;;;;-1.74;100.00;100510.06;10442476;28;20049;-78
2024/01/19 08:21:04;;;;;;;66.20;28.88;;;;;;;-1.65;100.00;100506.31;10437522;28;20059;-77
2024/01/19 08:26:08;;;;;;;51.38;23.38;;;;;;;-1.81;100.00;100531.34;10456995;28;20443;-80
2024/01/19 08:31:11;;;;;;;69.15;28.67;;;;;;;-1.69;100.00;100536.28;10477774;28;20048;-78
2024/01/19 08:36:16;;;;;;;47.80;22.85;;;;;;;-2.12;100.00;100534.81;10454892;28;20047;-82
2024/01/19 08:41:20;;;;;;;72.35;28.70;;;;;;;-1.51;100.00;100541.03;10457080;28;21179;-77
2024/01/19 08:46:23;;;;;;;53.28;24.30;;;;;;;-1.99;100.00;100538.00;10485511;28;20040;-81
2024/01/19 08:51:28;;;;;;;45.83;23.30;;;;;;;-1.93;100.00;100551.84;10462364;28;20501;-80
2024/01/19 08:56:31;;;;;;;40.05;16.58;;;;;;;-1.69;100.00;100567.91;10470668;28;20052;-80
2024/01/19 09:01:34;;;;;;;53.20;21.20;;;;;;;-1.88;100.00;100565.75;10457175;28;20049;-80
2024/01/19 09:06:39;;;;;;;29.13;14.90;;;;;;;-1.64;100.00;100580.03;10436943;28;20060;-78
2024/01/19 09:11:47;;;;;;;35.63;16.38;;;;;;;-1.74;100.00;100581.19;10445373;28;20056;-79
2024/01/19 09:16:50;;;;;;;25.58;11.70;;;;;;;-1.82;100.00;100587.56;10431992;28;20051;-80
2024/01/19 09:21:54;;;;;;;35.55;15.50;;;;;;;-1.31;100.00;100603.72;10445890;28;20128;-77
2024/01/19 09:26:57;;;;;;;25.88;13.25;;;;;;;-1.87;100.00;100606.09;10432183;28;20049;-78
2024/01/19 09:32:00;;;;;;;27.60;14.18;;;;;;;-1.62;100.00;100623.00;10443588;28;20576;-79
2024/01/19 09:37:04;;;;;;;27.65;11.93;;;;;;;-1.51;100.00;100630.63;10444388;28;20515;-81
2024/01/19 09:42:18;;;;;;;22.65;12.70;;;;;;;-1.60;100.00;100646.66;10432513;28;20052;-79
2024/01/19 09:47:23;;;;;;;21.95;9.80;;;;;;;-1.59;100.00;100652.78;10449135;28;20186;-78
2024/01/19 09:52:48;;;;;;;13.60;7.85;;;;;;;-1.65;100.00;100672.25;10437314;28;20520;-79
2024/01/19 09:57:52;;;;;;;28.50;14.70;;;;;;;-1.30;100.00;100667.84;10436835;28;20051;-78
2024/01/19 10:02:55;;;;;;;24.45;10.85;;;;;;;-0.98;99.71;100662.53;10441415;28;20512;-80
2024/01/19 10:08:05;;;;;;;18.70;10.18;;;;;;;-0.88;97.83;100672.78;10449187;28;20141;-78
2024/01/19 10:13:09;;;;;;;9.95;6.20;;;;;;;-1.39;100.00;100682.13;10433813;28;20576;-79
2024/01/19 10:18:13;;;;;;;22.40;9.35;;;;;;;-1.22;100.00;100674.63;10436739;28;20516;-79
2024/01/19 10:23:22;;;;;;;27.95;13.32;;;;;;;-1.20;100.00;100688.63;10434609;28;20040;-78
2024/01/19 10:28:33;;;;;;;25.90;12.85;;;;;;;-0.82;98.27;100689.31;10410374;28;20500;-77
2024/01/19 10:33:37;;;;;;;33.93;9.90;;;;;;;-1.06;100.00;100682.13;10439955;28;20714;-78
2024/01/19 10:38:41;;;;;;;17.17;8.43;;;;;;;-1.21;100.00;100683.38;10431336;28;20078;-80
2024/01/19 10:43:45;;;;;;;21.65;10.13;;;;;;;-0.76;100.00;100697.06;10425098;28;20044;-77
2024/01/19 10:48:50;;;;;;;22.83;10.57;;;;;;;-0.62;96.31;100701.06;10451111;28;20432;-80
2024/01/19 10:54:02;;;;;;;22.05;10.35;;;;;;;-0.46;94.13;100704.13;10419403;28;20049;-79
2024/01/19 10:59:12;;;;;;;25.75;11.70;;;;;;;-0.81;98.17;100701.59;10472220;28;20512;-80
2024/01/19 11:04:16;;;;;;;22.27;11.02;;;;;;;-0.80;96.06;100713.88;10476985;28;20048;-80
2024/01/19 11:09:20;;;;;;;13.98;7.50;;;;;;;0.34;88.61;100702.44;10483889;28;20136;-78
2024/01/19 11:14:25;;;;;;;23.35;12.18;;;;;;;0.57;86.82;100702.50;10474106;28;20052;-79
2024/01/19 11:19:30;;;;;;;18.65;8.48;;;;;;;1.53;81.37;100704.34;10489791;28;20044;-81
2024/01/19 11:24:39;;;;;;;21.30;10.95;;;;;;;1.49;80.09;100706.25;10483544;28;20048;-79
2024/01/19 11:29:44;;;;;;;23.90;9.40;;;;;;;0.98;81.55;100701.97;10481362;28;20439;-77
2024/01/19 11:34:50;;;;;;;20.15;10.65;;;;;;;0.11;88.33;100719.91;10484753;28;20079;-77
2024/01/19 11:39:55;;;;;;;19.13;9.20;;;;;;;0.83;84.92;100724.53;10476855;28;20092;-77
2024/01/19 11:44:58;;;;;;;18.40;9.25;;;;;;;0.71;85.36;100709.94;10482518;28;20059;-79
2024/01/19 11:50:02;;;;;;;20.65;9.45;;;;;;;0.28;87.03;100705.28;10486534;28;21668;-78
2024/01/19 11:55:36;;;;;;;23.65;10.68;;;;;;;0.60;87.54;100696.25;10484396;28;20052;-78
2024/01/19 12:00:40;;;;;;;29.35;11.25;;;;;;;-0.28;93.18;100730.78;10472730;28;20048;-79
2024/01/19 12:05:45;;;;;;;31.45;12.15;;;;;;;1.22;84.02;100710.78;10474322;28;20864;-79
2024/01/19 12:11:01;;;;;;;26.02;11.95;;;;;;;0.32;89.82;100728.03;10463041;28;20047;-79
2024/01/19 12:16:04;;;;;;;22.88;10.65;;;;;;;-0.08;91.83;100750.47;10488470;28;20103;-80
2024/01/19 12:21:08;;;;;;;18.95;8.77;;;;;;;-0.04;93.66;100741.53;10490418;28;20096;-80
2024/01/19 12:26:13;;;;;;;23.63;11.70;;;;;;;1.07;83.82;100728.09;10473339;28;20076;-78
2024/01/19 12:31:27;;;;;;;27.90;11.80;;;;;;;0.77;86.90;100733.56;10465558;28;20131;-80
2024/01/19 12:36:30;;;;;;;16.80;9.05;;;;;;;1.00;84.30;100745.97;10484182;28;20532;-79
2024/01/19 12:41:34;;;;;;;20.63;9.32;;;;;;;1.06;84.89;100740.44;10466692;28;20439;-78
2024/01/19 12:46:38;;;;;;;17.80;8.35;;;;;;;1.10;82.01;100778.25;10492445;28;20628;-78
2024/01/19 12:51:42;;;;;;;22.02;11.80;;;;;;;0.90;84.62;100768.34;10503095;28;20053;-78
2024/01/19 12:56:48;;;;;;;25.77;12.30;;;;;;;0.48;88.52;100766.25;10503432;28;20058;-79
2024/01/19 13:01:51;;;;;;;20.80;8.70;;;;;;;0.98;83.38;100762.81;10497206;28;20949;-78
2024/01/19 13:06:54;;;;;;;15.68;7.82;;;;;;;0.19;88.60;100790.13;10505656;28;20082;-81
2024/01/19 13:12:10;;;;;;;15.63;8.45;;;;;;;0.51;86.14;100778.50;10491656;28;20047;-79
2024/01/19 13:17:23;;;;;;;18.88;8.45;;;;;;;0.45;85.96;100770.78;10493305;28;20047;-81
2024/01/19 13:22:27;;;;;;;18.35;10.63;;;;;;;0.26;86.68;100792.53;10501398;28;20047;-78
2024/01/19 13:27:33;;;;;;;19.88;9.48;;;;;;;0.95;84.19;100784.94;10477470;28;20052;-80
2024/01/19 13:32:36;;;;;;;24.73;12.15;;;;;;;1.30;81.60;100777.53;10486921;28;20052;-77
2024/01/19 13:37:39;;;;;;;29.02;9.93;;;;;;;0.97;83.29;100791.06;10499477;28;20090;-81
2024/01/19 13:42:44;;;;;;;20.55;11.48;;;;;;;0.46;83.58;100791.88;10496411;28;20059;-78
2024/01/19 13:47:47;;;;;;;25.15;12.93;;;;;;;0.18;87.26;100810.41;10492076;28;20059;-80
2024/01/19 13:52:50;;;;;;;27.73;12.23;;;;;;;-0.45;91.22;100799.06;10482183;28;20040;-78
2024/01/19 13:57:54;;;;;;;25.70;11.63;;;;;;;-0.02;89.88;100808.38;10495688;28;20075;-79
2024/01/19 14:02:57;;;;;;;28.40;13.73;;;;;;;0.52;85.56;100789.06;10473722;28;21697;-79
2024/01/19 14:08:01;;;;;;;28.77;11.95;;;;;;;0.48;85.38;100803.28;10502066;28;20055;-80
2024/01/19 14:13:05;;;;;;;28.40;13.90;;;;;;;0.52;86.36;100815.50;10492221;28;20060;-79
2024/01/19 14:18:09;;;;;;;21.63;12.90;;;;;;;-0.05;90.67;100829.59;10489496;28;20058;-78
2024/01/19 14:23:13;;;;;;;45.63;20.30;;;;;;;0.29;88.89;100853.22;10496317;28;20040;-80
2024/01/19 14:28:17;;;;;;;35.45;13.80;;;;;;;0.12;90.22;100835.22;10491204;28;20052;-79
2024/01/19 14:33:21;;;;;;;38.78;17.40;;;;;;;0.23;88.85;100849.91;10493435;28;20519;-79
2024/01/19 14:38:24;;;;;;;30.30;15.00;;;;;;;0.25;88.55;100842.75;10499276;28;20048;-82
2024/01/19 14:43:29;;;;;;;35.60;15.07;;;;;;;0.04;90.67;100865.44;10488202;28;20036;-79
2024/01/19 14:48:32;;;;;;;31.50;13.07;;;;;;;0.01;91.07;100876.97;10466083;28;20146;-78
2024/01/19 14:53:37;;;;;;;54.70;25.48;;;;;;;0.36;88.54;100870.63;10484238;28;20082;-79
2024/01/19 14:58:42;;;;;;;40.92;19.20;;;;;;;0.00;90.02;100893.72;10488611;28;20074;-78
2024/01/19 15:03:46;;;;;;;32.53;15.25;;;;;;;-0.04;91.36;100883.28;10461627;28;20184;-78
2024/01/19 15:08:50;;;;;;;35.78;16.10;;;;;;;0.08;89.99;100897.00;10474021;28;21112;-79
2024/01/19 15:13:54;;;;;;;30.88;14.88;;;;;;;-0.17;92.49;100893.31;10462531;28;20072;-80
2024/01/19 15:18:57;;;;;;;39.70;17.65;;;;;;;-0.30;93.79;100898.97;10482688;28;20062;-80
2024/01/19 15:24:04;;;;;;;49.53;16.92;;;;;;;-0.27;92.84;100898.03;10493716;28;20044;-79
2024/01/19 15:29:13;;;;;;;52.72;22.33;;;;;;;0.19;92.49;100898.44;10496116;28;20050;-80
2024/01/19 15:34:16;;;;;;;48.22;19.40;;;;;;;-0.46;95.64;100891.53;10482891;28;20051;-79
2024/01/19 15:39:20;;;;;;;55.97;23.20;;;;;;;-0.36;95.46;100895.63;10505756;28;20044;-80
2024/01/19 15:44:24;;;;;;;44.20;16.13;;;;;;;-0.53;97.05;100906.63;10499135;28;20048;-80
2024/01/19 15:49:27;;;;;;;41.88;18.45;;;;;;;-0.89;99.49;100916.38;10500775;28;20056;-79
2024/01/19 15:54:31;;;;;;;57.30;24.02;;;;;;;-0.62;99.16;100912.16;10462240;28;20345;-80
2024/01/19 15:59:35;;;;;;;62.78;24.20;;;;;;;-0.54;97.72;100913.69;10458236;28;20769;-80
2024/01/19 16:04:38;;;;;;;46.17;18.88;;;;;;;-0.91;100.00;100934.88;10457496;28;21179;-80
2024/01/19 16:09:41;;;;;;;41.75;17.83;;;;;;;-1.17;100.00;100924.97;10460087;28;20040;-77
2024/01/19 16:14:45;;;;;;;35.85;16.27;;;;;;;-1.05;100.00;100924.66;10461337;28;20048;-79
2024/01/19 16:19:51;;;;;;;34.42;15.30;;;;;;;-1.05;100.00;100936.97;10439373;28;20837;-80
2024/01/19 16:24:54;;;;;;;43.60;19.80;;;;;;;-1.28;100.00;100938.41;10455132;28;20052;-80
2024/01/19 16:29:59;;;;;;;43.08;19.80;;;;;;;-1.15;100.00;100925.81;10444720;28;20053;-76
2024/01/19 16:35:04;;;;;;;38.00;15.07;;;;;;;-1.11;100.00;100923.94;10445198;28;20037;-77
2024/01/19 16:40:08;;;;;;;54.20;21.25;;;;;;;-1.03;100.00;100935.19;10448466;28;20055;-78
2024/01/19 16:45:13;;;;;;;43.00;18.15;;;;;;;-1.03;100.00;100937.81;10437591;28;20940;-79
2024/01/19 16:50:16;;;;;;;33.78;16.67;;;;;;;-0.95;100.00;100934.09;10445234;28;20051;-77
2024/01/19 16:55:19;;;;;;;48.08;22.23;;;;;;;-0.82;100.00;100934.66;10450580;28;20143;-80
2024/01/19 17:00:24;;;;;;;43.22;16.65;;;;;;;-1.02;100.00;100944.81;10452351;28;20052;-78
2024/01/19 17:05:27;;;;;;;44.45;19.60;;;;;;;-1.02;100.00;100950.94;10435256;28;20120;-77
2024/01/19 17:10:30;;;;;;;29.88;13.15;;;;;;;-1.26;100.00;100957.69;10447341;28;20428;-78
2024/01/19 17:15:35;;;;;;;42.67;18.40;;;;;;;-0.78;98.82;100970.59;10448879;28;20044;-79
2024/01/19 17:20:38;;;;;;;31.17;14.40;;;;;;;-1.30;100.00;100979.72;10451513;28;20044;-78
2024/01/19 17:25:43;;;;;;;36.83;17.25;;;;;;;-1.20;100.00;100976.00;10436791;28;20143;-77
2024/01/19 17:30:48;;;;;;;40.80;18.38;;;;;;;-1.29;100.00;100985.88;10436180;28;20508;-78
2024/01/19 17:35:51;;;;;;;49.33;19.45;;;;;;;-1.32;100.00;100978.88;10452923;28;20055;-78
2024/01/19 17:40:54;;;;;;;44.53;17.25;;;;;;;-1.43;100.00;100973.84;10441538;28;20044;-81
2024/01/19 17:45:59;;;;;;;43.72;18.35;;;;;;;-1.41;100.00;101003.69;10443396;28;20052;-82
2024/01/19 17:51:02;;;;;;;22.00;11.23;;;;;;;-1.07;100.00;101009.97;10444245;28;20071;-80
2024/01/19 17:56:05;;;;;;;40.78;15.43;;;;;;;-1.22;100.00;101016.47;10443431;28;20041;-78
2024/01/19 18:01:10;;;;;;;40.65;17.92;;;;;;;-1.49;100.00;101025.84;10449478;28;20049;-79
2024/01/19 18:06:14;;;;;;;34.45;15.82;;;;;;;-1.49;100.00;101039.03;10437695;28;20067;-80
2024/01/19 18:11:17;;;;;;;42.58;16.48;;;;;;;-1.40;100.00;101039.72;10447104;28;20465;-77
2024/01/19 18:16:22;;;;;;;31.17;15.27;;;;;;;-1.50;100.00;101053.09;10443507;28;20131;-79
2024/01/19 18:21:26;;;;;;;51.83;16.25;;;;;;;-1.29;100.00;101050.03;10453305;28;20110;-75
2024/01/19 18:26:29;;;;;;;38.42;15.05;;;;;;;-1.30;100.00;101050.03;10451017;28;20055;-80
2024/01/19 18:31:34;;;;;;;51.08;24.00;;;;;;;-1.18;100.00;101057.69;10492514;28;20051;-78
2024/01/19 18:36:39;;;;;;;43.25;18.60;;;;;;;-1.65;100.00;101065.66;10480790;28;20573;-80
2024/01/19 18:41:42;;;;;;;48.60;19.17;;;;;;;-1.40;100.00;101063.44;10492526;28;20060;-77
2024/01/19 18:46:49;;;;;;;34.88;13.77;;;;;;;-1.82;100.00;101077.44;10435948;28;20037;-80
2024/01/19 18:51:52;;;;;;;36.83;15.95;;;;;;;-1.70;100.00;101078.09;10452337;28;20122;-80
2024/01/19 18:56:56;;;;;;;45.03;20.63;;;;;;;-1.45;100.00;101069.69;10445440;28;20048;-80
2024/01/19 19:02:00;;;;;;;54.97;20.85;;;;;;;-1.55;100.00;101081.31;10460039;28;20561;-81
2024/01/19 19:07:03;;;;;;;38.25;18.50;;;;;;;-1.41;100.00;101077.50;10455073;28;20045;-78
2024/01/19 19:12:07;;;;;;;59.75;23.83;;;;;;;-1.46;100.00;101099.56;10454252;28;20051;-76
2024/01/19 19:17:12;;;;;;;29.98;13.30;;;;;;;-1.65;100.00;101105.19;10455620;28;20064;-78
2024/01/19 19:22:19;;;;;;;46.88;22.40;;;;;;;-1.56;100.00;101101.53;10456849;28;20048;-80
2024/01/19 19:27:22;;;;;;;37.08;15.55;;;;;;;-1.68;100.00;101113.16;10470627;28;20482;-79
2024/01/19 19:32:27;;;;;;;47.63;17.50;;;;;;;-1.90;100.00;101120.56;10445226;28;20045;-77
2024/01/19 19:37:30;;;;;;;44.72;15.45;;;;;;;-1.71;100.00;101121.13;10441114;28;20057;-80
2024/01/19 19:42:33;;;;;;;50.55;21.83;;;;;;;-1.71;100.00;101120.25;10448099;28;20802;-77
2024/01/19 19:47:38;;;;;;;39.90;19.73;;;;;;;-1.85;100.00;101131.03;10444950;28;20536;-80
2024/01/19 19:52:41;;;;;;;36.67;17.40;;;;;;;-1.42;100.00;101107.38;10440877;28;20048;-80
2024/01/19 19:57:44;;;;;;;38.15;18.27;;;;;;;-1.49;100.00;101118.06;10476148;28;20098;-80
2024/01/19 20:02:49;;;;;;;49.13;21.50;;;;;;;-1.72;100.00;101124.66;10469268;28;20467;-80
2024/01/19 20:07:53;;;;;;;48.40;19.40;;;;;;;-1.95;100.00;101132.94;10469243;28;20112;-79
2024/01/19 20:12:56;;;;;;;40.20;18.35;;;;;;;-1.45;100.00;101133.81;10457016;28;20093;-77
2024/01/19 20:18:00;;;;;;;31.63;15.57;;;;;;;-1.63;100.00;101136.78;10478559;28;20051;-78
2024/01/19 20:23:08;;;;;;;51.22;20.60;;;;;;;-1.65;100.00;101136.81;10460652;28;20603;-79
2024/01/19 20:28:11;;;;;;;53.00;24.50;;;;;;;-1.54;100.00;101136.59;10467749;28;20158;-77
2024/01/19 20:33:16;;;;;;;56.70;25.30;;;;;;;-1.63;100.00;101153.47;10465957;28;20184;-80
2024/01/19 20:38:21;;;;;;;44.10;19.45;;;;;;;-1.90;100.00;101172.38;10473310;28;20043;-80
2024/01/19 20:43:25;;;;;;;50.40;20.73;;;;;;;-1.72;100.00;101176.47;10472933;28;20715;-81
2024/01/19 20:48:29;;;;;;;34.25;18.20;;;;;;;-1.89;100.00;101182.03;10456992;28;20040;-77
2024/01/19 20:53:32;;;;;;;42.35;17.40;;;;;;;-1.81;100.00;101169.63;10443091;28;20586;-80
2024/01/19 20:58:36;;;;;;;51.80;21.83;;;;;;;-2.07;100.00;101173.53;10447831;28;20078;-79
2024/01/19 21:03:45;;;;;;;34.85;16.48;;;;;;;-2.02;100.00;101193.66;10442520;28;20067;-81
2024/01/19 21:08:48;;;;;;;44.38;18.30;;;;;;;-1.87;100.00;101173.19;10442197;28;20052;-78
2024/01/19 21:13:51;;;;;;;48.33;20.83;;;;;;;-1.91;100.00;101184.69;10454398;28;20072;-80
2024/01/19 21:18:56;;;;;;;48.30;21.80;;;;;;;-1.55;100.00;101173.53;10459107;28;20401;-80
2024/01/19 21:23:59;;;;;;;52.10;22.58;;;;;;;-1.70;100.00;101172.03;10486284;28;20037;-76
2024/01/19 21:29:03;;;;;;;39.72;20.58;;;;;;;-1.76;100.00;101190.59;10498346;28;20052;-79
2024/01/19 21:34:08;;;;;;;44.65;20.52;;;;;;;-1.58;100.00;101187.63;10481582;28;20408;-76
2024/01/19 21:39:12;;;;;;;44.05;20.90;;;;;;;-1.53;100.00;101206.00;10486324;28;20567;-77
2024/01/19 21:44:16;;;;;;;54.70;25.98;;;;;;;-1.82;100.00;101210.00;10443253;28;20132;-77
2024/01/19 21:49:24;;;;;;;35.55;15.85;;;;;;;-1.62;100.00;101197.38;10441846;28;20127;-78
2024/01/19 21:54:27;;;;;;;49.65;21.73;;;;;;;-1.36;100.00;101201.28;10438679;28;20079;-77
2024/01/19 21:59:30;;;;;;;50.13;24.05;;;;;;;-1.84;100.00;101209.16;10451882;28;20693;-79
2024/01/19 22:04:35;;;;;;;53.33;23.73;;;;;;;-1.34;100.00;101199.50;10449753;28;22386;-78
2024/01/19 22:09:39;;;;;;;51.42;23.60;;;;;;;-1.32;100.00;101207.38;10443711;28;20073;-81
2024/01/19 22:14:45;;;;;;;44.30;20.92;;;;;;;-1.75;100.00;101214.28;10446674;28;20538;-78
2024/01/19 22:19:50;;;;;;;39.03;17.75;;;;;;;-1.71;100.00;101226.50;10445054;28;20044;-81
2024/01/19 22:24:53;;;;;;;45.03;22.48;;;;;;;-1.53;100.00;101219.19;10438737;28;20804;-78
2024/01/19 22:29:56;;;;;;;30.00;15.13;;;;;;;-1.63;100.00;101245.69;10449431;28;20040;-78
2024/01/19 22:35:00;;;;;;;50.00;24.38;;;;;;;-1.56;100.00;101250.84;10448292;28;20530;-79
2024/01/19 22:40:04;;;;;;;56.70;25.23;;;;;;;-1.24;100.00;101247.63;10454920;28;20754;-79
2024/01/19 22:45:08;;;;;;;62.22;27.50;;;;;;;-1.27;100.00;101245.94;10451575;28;20048;-79
2024/01/19 22:50:13;;;;;;;41.45;21.40;;;;;;;-1.70;100.00;101244.06;10464285;28;20196;-79
2024/01/19 22:55:19;;;;;;;42.88;14.98;;;;;;;-1.76;100.00;101246.78;10451632;28;20124;-80